createdAt,value
2023-02-08T00:02:13.531Z,-216.24399
2023-02-08T00:07:14.467Z,-215.80925
2023-02-08T00:12:15.421Z,-216.1296
2023-02-08T00:17:16.335Z,-215.96379
2023-02-08T00:22:17.320Z,-215.8736
2023-02-08T00:27:18.231Z,-215.84866
2023-02-08T00:32:19.259Z,-215.86908
2023-02-08T00:37:20.245Z,-216.35619
2023-02-08T00:42:21.180Z,-216.83831
2023-02-08T00:47:22.084Z,-216.27666
2023-02-08T00:52:23.231Z,-216.02909
2023-02-08T00:57:24.395Z,-215.79296
2023-02-08T01:02:25.326Z,-215.71975
2023-02-08T01:07:26.261Z,-216.13175
2023-02-08T01:12:27.169Z,-216.34192
2023-02-08T01:17:28.114Z,-216.94464
2023-02-08T01:22:29.106Z,-216.81009
2023-02-08T01:27:30.032Z,-216.28638
2023-02-08T01:32:30.985Z,-216.50022
2023-02-08T01:37:31.924Z,-216.69574
2023-02-08T01:42:32.836Z,-216.26994
2023-02-08T01:47:33.741Z,-216.56565
2023-02-08T01:52:34.644Z,-216.93787
2023-02-08T01:57:35.564Z,-216.73776
2023-02-08T02:02:36.500Z,-216.65141
2023-02-08T02:07:37.552Z,-216.69421
2023-02-08T02:12:38.461Z,-216.40618
2023-02-08T02:17:39.386Z,-216.15988
2023-02-08T02:22:40.386Z,-216.24366
2023-02-08T02:27:41.325Z,-216.34044
2023-02-08T02:32:42.354Z,-216.49542
2023-02-08T02:37:43.268Z,-217.22419
2023-02-08T02:42:44.193Z,-217.18075
2023-02-08T02:47:45.112Z,-216.80759
2023-02-08T02:52:46.002Z,-216.48024
2023-02-08T02:57:46.906Z,-216.756
2023-02-08T03:02:47.821Z,-216.63704
2023-02-08T03:07:48.811Z,-216.59769
2023-02-08T03:12:49.737Z,-216.98284
2023-02-08T03:17:50.669Z,-217.40269
2023-02-08T03:22:51.638Z,-217.20051
2023-02-08T03:27:52.596Z,-217.01146
2023-02-08T03:32:53.571Z,-216.84428
2023-02-08T03:37:54.492Z,-216.87971
2023-02-08T03:42:55.423Z,-216.99797
2023-02-08T03:47:56.347Z,-217.10754
2023-02-08T03:52:57.298Z,-216.99747
2023-02-08T03:57:58.213Z,-216.88822
2023-02-08T04:02:59.153Z,-216.75954
2023-02-08T04:08:00.115Z,-216.81254
2023-02-08T04:13:01.164Z,-216.3003
2023-02-08T04:18:02.051Z,-216.55902
2023-02-08T04:23:03.035Z,-216.67462
2023-02-08T04:28:04.001Z,-216.8958
2023-02-08T04:33:04.960Z,-216.3976
2023-02-08T04:38:05.858Z,-216.83819
2023-02-08T04:43:06.823Z,-216.93634
2023-02-08T04:48:07.775Z,-216.35643
2023-02-08T04:53:08.712Z,-216.30346
2023-02-08T04:58:09.629Z,-216.50318
2023-02-08T05:03:10.573Z,-216.96232
2023-02-08T05:08:11.513Z,-216.79796
2023-02-08T05:13:12.480Z,-217.25254
2023-02-08T05:18:13.540Z,-217.30079
2023-02-08T05:23:14.591Z,-217.26669
2023-02-08T05:28:15.553Z,-217.51195
2023-02-08T05:33:16.517Z,-217.69935
2023-02-08T05:38:17.777Z,-217.73112
2023-02-08T05:43:18.720Z,-218.1022
2023-02-08T05:48:19.656Z,-218.5627
2023-02-08T05:53:20.693Z,-218.54873
2023-02-08T05:58:21.626Z,-218.74818
2023-02-08T06:03:22.924Z,-218.97737
2023-02-08T06:08:24.220Z,-218.73915
2023-02-08T06:13:25.440Z,-219.30866
2023-02-08T06:18:26.634Z,-219.509
2023-02-08T06:23:27.619Z,-219.67467
2023-02-08T06:28:28.590Z,-219.75828
2023-02-08T06:33:29.507Z,-220.16684
2023-02-08T06:38:30.438Z,-220.77079
2023-02-08T06:43:31.355Z,-221.1356
2023-02-08T06:48:32.289Z,-221.51558
2023-02-08T06:53:33.210Z,-221.56247
2023-02-08T06:58:34.124Z,-221.46092
2023-02-08T07:03:35.052Z,-221.58353
2023-02-08T07:08:35.967Z,-221.41304
2023-02-08T07:13:36.902Z,-221.55611
2023-02-08T07:18:37.814Z,-221.4759
2023-02-08T07:23:38.797Z,-221.11586
2023-02-08T07:28:39.687Z,-220.52855
2023-02-08T07:33:40.704Z,-219.56306
2023-02-08T07:38:41.628Z,-219.7148
2023-02-08T07:43:42.554Z,-219.98605
2023-02-08T07:48:43.437Z,-220.1356
2023-02-08T07:53:44.396Z,-220.26435
2023-02-08T07:58:45.308Z,-221.43336
2023-02-08T08:03:46.343Z,-221.81097
2023-02-08T08:08:47.384Z,-222.17253
2023-02-08T08:13:48.483Z,-222.61044
2023-02-08T08:18:49.413Z,-223.83132
2023-02-08T08:23:50.778Z,-223.73448
2023-02-08T08:28:51.954Z,-223.83032
2023-02-08T08:33:52.879Z,-224.24549
2023-02-08T08:38:53.814Z,-224.67497
2023-02-08T08:43:54.768Z,-223.54822
2023-02-08T08:48:55.837Z,-223.31624
2023-02-08T08:53:56.747Z,-223.36847
2023-02-08T08:58:57.665Z,-222.58856
2023-02-08T09:03:58.579Z,-222.15883
2023-02-08T09:08:59.495Z,-221.35094
2023-02-08T09:14:01.992Z,-220.99996
2023-02-08T09:19:04.916Z,-220.94746
2023-02-08T09:24:05.909Z,-221.10618
2023-02-08T09:29:06.862Z,-221.32366
2023-02-08T09:34:07.904Z,-222.00682
2023-02-08T09:39:08.967Z,-222.85022
2023-02-08T09:44:09.925Z,-222.34931
2023-02-08T09:49:10.847Z,-222.24152
2023-02-08T09:54:11.839Z,-221.01916
2023-02-08T09:59:12.780Z,-219.03288
2023-02-08T10:04:13.715Z,-217.58998
2023-02-08T10:09:14.632Z,-217.09119
2023-02-08T10:14:15.754Z,-216.85552
2023-02-08T10:19:16.697Z,-216.2548
2023-02-08T10:24:17.713Z,-215.66853
2023-02-08T10:29:18.670Z,-215.30386
2023-02-08T10:34:19.659Z,-215.43272
2023-02-08T10:39:20.623Z,-215.08192
2023-02-08T10:44:21.552Z,-213.46098
2023-02-08T10:49:22.471Z,-213.06497
2023-02-08T10:54:23.640Z,-212.55419
2023-02-08T10:59:24.872Z,-211.87005
2023-02-08T11:04:26.075Z,-212.09639
2023-02-08T11:09:27.376Z,-211.76676
2023-02-08T11:14:40.899Z,-211.43332
2023-02-08T11:19:46.925Z,-210.89469
2023-02-08T11:24:47.862Z,-210.71446
2023-02-08T11:29:48.740Z,-210.46327
2023-02-08T11:34:49.658Z,-210.1452
2023-02-08T11:39:50.562Z,-209.89852
2023-02-08T11:44:51.533Z,-209.53071
2023-02-08T11:49:52.454Z,-209.36703
2023-02-08T11:54:53.397Z,-209.28261
2023-02-08T11:59:54.324Z,-209.4157
2023-02-08T12:04:55.231Z,-209.0603
2023-02-08T12:09:56.149Z,-209.22485
2023-02-08T12:14:57.049Z,-208.42883
2023-02-08T12:19:57.969Z,-207.53723
2023-02-08T12:24:58.875Z,-208.18361
2023-02-08T12:29:59.826Z,-208.03587
2023-02-08T12:35:00.749Z,-208.78339
2023-02-08T12:40:01.646Z,-208.5446
2023-02-08T12:45:02.583Z,-208.20561
2023-02-08T12:50:03.484Z,-208.13234
2023-02-08T12:55:04.403Z,-207.56137
2023-02-08T13:00:05.312Z,-206.9183
2023-02-08T13:05:06.256Z,-206.85161
2023-02-08T13:10:07.193Z,-206.13795
2023-02-08T13:15:09.244Z,-205.41945
2023-02-08T13:20:12.819Z,-205.75082
2023-02-08T13:25:13.787Z,-205.45164
2023-02-08T13:30:14.724Z,-204.97498
2023-02-08T13:35:15.644Z,-204.32753
2023-02-08T13:40:16.579Z,-204.33592
2023-02-08T13:45:17.503Z,-204.44098
2023-02-08T13:50:18.421Z,-204.12916
2023-02-08T13:55:19.341Z,-204.56342
2023-02-08T14:00:20.244Z,-203.7647
2023-02-08T14:05:21.184Z,-203.99657
2023-02-08T14:10:22.196Z,-203.80604
2023-02-08T14:15:23.395Z,-203.6134
2023-02-08T14:20:24.644Z,-203.34158
2023-02-08T14:25:25.898Z,-202.75398
2023-02-08T14:30:26.832Z,-202.1032
2023-02-08T14:35:27.825Z,-202.03473
2023-02-08T14:40:28.729Z,-201.64445
2023-02-08T14:45:29.674Z,-201.65598
2023-02-08T14:50:30.586Z,-201.46703
2023-02-08T14:55:31.590Z,-201.12835
2023-02-08T15:00:32.566Z,-201.75625
2023-02-08T15:05:33.610Z,-201.22175
2023-02-08T15:10:34.526Z,-200.69505
2023-02-08T15:15:35.458Z,-199.98053
2023-02-08T15:20:36.399Z,-200.38751
2023-02-08T15:25:37.370Z,-200.00575
2023-02-08T15:30:38.350Z,-199.73267
2023-02-08T15:35:39.342Z,-198.62843
2023-02-08T15:40:40.279Z,-198.99205
2023-02-08T15:45:41.285Z,-199.30611
2023-02-08T15:50:42.745Z,-198.57508
2023-02-08T15:55:43.939Z,-197.72622
2023-02-08T16:00:45.182Z,-197.55199
2023-02-08T16:05:46.236Z,-197.50278
2023-02-08T16:10:47.174Z,-197.27182
2023-02-08T16:15:49.372Z,-196.74047
2023-02-08T16:20:51.557Z,-197.54586
2023-02-08T16:25:52.545Z,-197.52306
2023-02-08T16:30:53.697Z,-197.20621
2023-02-08T16:35:54.708Z,-197.22012
2023-02-08T16:40:55.628Z,-196.95425
2023-02-08T16:45:56.599Z,-197.01831
2023-02-08T16:50:57.552Z,-196.33296
2023-02-08T16:55:58.472Z,-196.50477
2023-02-08T17:00:59.373Z,-196.12125
2023-02-08T17:06:00.323Z,-196.08775
2023-02-08T17:11:01.331Z,-196.0091
2023-02-08T17:16:02.445Z,-195.64637
2023-02-08T17:21:03.441Z,-195.28261
2023-02-08T17:26:04.467Z,-195.14093
2023-02-08T17:31:05.556Z,-195.19434
2023-02-08T17:36:06.614Z,-194.87734
2023-02-08T17:41:07.523Z,-194.58978
2023-02-08T17:46:08.502Z,-194.38806
2023-02-08T17:51:09.464Z,-194.05991
2023-02-08T17:56:10.419Z,-193.38031
2023-02-08T18:01:11.697Z,-192.90387
2023-02-08T18:06:12.876Z,-192.97317
2023-02-08T18:11:13.801Z,-193.16386
2023-02-08T18:16:14.907Z,-192.88492
2023-02-08T18:21:15.909Z,-192.83635
2023-02-08T18:26:16.880Z,-192.32351
2023-02-08T18:31:17.905Z,-191.77441
2023-02-08T18:36:18.909Z,-191.9507
2023-02-08T18:41:19.841Z,-190.84741
2023-02-08T18:46:20.902Z,-190.32944
2023-02-08T18:51:21.874Z,-189.70361
2023-02-08T18:56:22.802Z,-189.32533
2023-02-08T19:01:24.213Z,-189.17217
2023-02-08T19:06:25.694Z,-188.75774
2023-02-08T19:11:26.683Z,-188.41103
2023-02-08T19:16:27.789Z,-187.91559
2023-02-08T19:21:28.807Z,-187.27151
2023-02-08T19:26:29.769Z,-186.98324
2023-02-08T19:31:31.263Z,-186.83453
2023-02-08T19:36:32.281Z,-186.45162
2023-02-08T19:41:33.262Z,-185.82552
2023-02-08T19:46:34.249Z,-185.33452
2023-02-08T19:51:35.196Z,-184.64962
2023-02-08T19:56:36.110Z,-184.80261
2023-02-08T20:01:37.036Z,-184.39252
2023-02-08T20:06:38.013Z,-183.22126
2023-02-08T20:11:51.281Z,-182.41006
2023-02-08T20:16:57.248Z,-182.78799
2023-02-08T20:21:58.195Z,-182.75644
2023-02-08T20:26:59.211Z,-182.21045
2023-02-08T20:32:00.243Z,-182.90813
2023-02-08T20:37:07.279Z,-183.22726
2023-02-08T20:42:08.892Z,-182.966
2023-02-08T20:47:09.881Z,-182.87915
2023-02-08T20:52:10.828Z,-182.9449
2023-02-08T20:57:11.784Z,-182.56638
2023-02-08T21:02:12.808Z,-181.72288
2023-02-08T21:07:13.839Z,-180.52482
2023-02-08T21:12:14.793Z,-180.65993
2023-02-08T21:17:15.781Z,-180.29486
2023-02-08T21:22:16.734Z,-179.8276
2023-02-08T21:27:17.767Z,-179.87109
2023-02-08T21:32:18.737Z,-178.47578
2023-02-08T21:37:19.812Z,-177.91277
2023-02-08T21:42:20.739Z,-177.4261
2023-02-08T21:47:21.674Z,-177.6677
2023-02-08T21:52:22.629Z,-177.7637
2023-02-08T21:57:23.765Z,-176.85966
2023-02-08T22:02:25.002Z,-176.07911
2023-02-08T22:07:26.227Z,-175.16006
2023-02-08T22:12:27.205Z,-174.99177
2023-02-08T22:17:28.152Z,-174.36555
2023-02-08T22:22:29.091Z,-174.19871
2023-02-08T22:27:30.118Z,-173.57655
2023-02-08T22:32:31.027Z,-173.76618
2023-02-08T22:37:31.961Z,-173.61032
2023-02-08T22:42:32.898Z,-173.64979
2023-02-08T22:47:33.848Z,-173.22693
2023-02-08T22:52:34.860Z,-172.88904
2023-02-08T22:57:35.865Z,-172.53328
2023-02-08T23:02:36.864Z,-171.94296
2023-02-08T23:07:37.839Z,-171.54992
2023-02-08T23:12:38.765Z,-171.45461
2023-02-08T23:17:39.692Z,-171.2342
2023-02-08T23:22:40.669Z,-170.75281
2023-02-08T23:27:41.651Z,-170.77061
2023-02-08T23:32:42.704Z,-171.04884
2023-02-08T23:37:43.666Z,-170.8306
2023-02-08T23:42:44.581Z,-170.18298
2023-02-08T23:47:45.537Z,-169.55076
2023-02-08T23:52:46.446Z,-169.18922
2023-02-08T23:57:47.477Z,-169.22455
